sensor_id;sensor_type;location;lat;lon;timestamp;temperature;humidity
15355;DHT22;7777;52.254;9.618;2023-12-14T04:13:15;5.60;99.90
15355;DHT22;7777;52.254;9.618;2023-12-14T04:15:41;5.60;99.90
15355;DHT22;7777;52.254;9.618;2023-12-14T04:18:07;5.60;99.90
15355;DHT22;7777;52.254;9.618;2023-12-14T04:20:34;5.60;99.90
15355;DHT22;7777;52.254;9.618;2023-12-14T04:22:59;5.60;99.90
15355;DHT22;7777;52.254;9.618;2023-12-14T04:25:26;5.60;99.90
15355;DHT22;7777;52.254;9.618;2023-12-14T04:27:52;5.60;99.90
15355;DHT22;7777;52.254;9.618;2023-12-14T04:30:17;5.60;99.90
15355;DHT22;7777;52.254;9.618;2023-12-14T04:32:43;5.60;99.90
15355;DHT22;7777;52.254;9.618;2023-12-14T04:35:10;5.60;99.90
15355;DHT22;7777;52.254;9.618;2023-12-14T04:37:36;5.60;99.90
15355;DHT22;7777;52.254;9.618;2023-12-14T04:40:02;5.60;99.90
15355;DHT22;7777;52.254;9.618;2023-12-14T04:42:28;5.60;99.90
15355;DHT22;7777;52.254;9.618;2023-12-14T04:44:54;5.60;99.90
15355;DHT22;7777;52.254;9.618;2023-12-14T04:47:20;5.60;99.90
15355;DHT22;7777;52.254;9.618;2023-12-14T04:49:47;5.60;99.90
15355;DHT22;7777;52.254;9.618;2023-12-14T04:52:13;5.60;99.90
15355;DHT22;7777;52.254;9.618;2023-12-14T04:54:39;5.60;99.90
15355;DHT22;7777;52.254;9.618;2023-12-14T04:57:05;5.50;99.90
15355;DHT22;7777;52.254;9.618;2023-12-14T04:59:31;5.50;99.90
15355;DHT22;7777;52.254;9.618;2023-12-14T05:01:57;5.50;99.90
15355;DHT22;7777;52.254;9.618;2023-12-14T05:04:22;5.50;99.90
15355;DHT22;7777;52.254;9.618;2023-12-14T05:06:48;5.50;99.90
15355;DHT22;7777;52.254;9.618;2023-12-14T05:09:14;5.50;99.90
15355;DHT22;7777;52.254;9.618;2023-12-14T05:11:40;5.50;99.90
15355;DHT22;7777;52.254;9.618;2023-12-14T05:14:06;5.50;99.90
15355;DHT22;7777;52.254;9.618;2023-12-14T05:16:32;5.50;99.90
15355;DHT22;7777;52.254;9.618;2023-12-14T05:18:57;5.50;99.90
15355;DHT22;7777;52.254;9.618;2023-12-14T05:21:24;5.50;99.90
15355;DHT22;7777;52.254;9.618;2023-12-14T05:23:50;5.50;99.90
15355;DHT22;7777;52.254;9.618;2023-12-14T05:26:15;5.40;99.90
15355;DHT22;7777;52.254;9.618;2023-12-14T05:28:41;5.40;99.90
15355;DHT22;7777;52.254;9.618;2023-12-14T05:31:07;5.40;99.90
15355;DHT22;7777;52.254;9.618;2023-12-14T05:33:37;5.40;99.90
15355;DHT22;7777;52.254;9.618;2023-12-14T05:36:03;5.40;99.90
15355;DHT22;7777;52.254;9.618;2023-12-14T05:38:31;5.40;99.90
15355;DHT22;7777;52.254;9.618;2023-12-14T05:40:57;5.40;99.90
15355;DHT22;7777;52.254;9.618;2023-12-14T05:43:22;5.40;99.90
15355;DHT22;7777;52.254;9.618;2023-12-14T05:45:48;5.40;99.90
15355;DHT22;7777;52.254;9.618;2023-12-14T05:48:14;5.40;99.90
15355;DHT22;7777;52.254;9.618;2023-12-14T05:50:40;5.40;99.90
15355;DHT22;7777;52.254;9.618;2023-12-14T05:53:05;5.40;99.90
15355;DHT22;7777;52.254;9.618;2023-12-14T05:55:31;5.40;99.90
15355;DHT22;7777;52.254;9.618;2023-12-14T05:57:57;5.40;99.90
15355;DHT22;7777;52.254;9.618;2023-12-14T06:00:22;5.40;99.90
15355;DHT22;7777;52.254;9.618;2023-12-14T06:02:48;5.40;99.90
15355;DHT22;7777;52.254;9.618;2023-12-14T06:05:14;5.40;99.90
15355;DHT22;7777;52.254;9.618;2023-12-14T06:07:40;5.40;99.90
15355;DHT22;7777;52.254;9.618;2023-12-14T06:10:06;5.40;99.90
15355;DHT22;7777;52.254;9.618;2023-12-14T06:12:34;5.40;99.90
15355;DHT22;7777;52.254;9.618;2023-12-14T06:15:01;5.40;99.90
15355;DHT22;7777;52.254;9.618;2023-12-14T06:17:27;5.40;99.90
15355;DHT22;7777;52.254;9.618;2023-12-14T06:19:53;5.40;99.90
15355;DHT22;7777;52.254;9.618;2023-12-14T06:22:18;5.40;99.90
15355;DHT22;7777;52.254;9.618;2023-12-14T06:24:44;5.40;99.90
15355;DHT22;7777;52.254;9.618;2023-12-14T06:27:10;5.40;99.90
15355;DHT22;7777;52.254;9.618;2023-12-14T06:29:35;5.40;99.90
15355;DHT22;7777;52.254;9.618;2023-12-14T06:32:01;5.40;99.90
15355;DHT22;7777;52.254;9.618;2023-12-14T06:34:27;5.40;99.90
15355;DHT22;7777;52.254;9.618;2023-12-14T06:36:52;5.40;99.90
15355;DHT22;7777;52.254;9.618;2023-12-14T06:39:18;5.40;99.90
15355;DHT22;7777;52.254;9.618;2023-12-14T06:41:44;5.40;99.90
15355;DHT22;7777;52.254;9.618;2023-12-14T06:44:10;5.40;99.90
15355;DHT22;7777;52.254;9.618;2023-12-14T06:46:35;5.30;99.90
15355;DHT22;7777;52.254;9.618;2023-12-14T06:49:01;5.30;99.90
15355;DHT22;7777;52.254;9.618;2023-12-14T06:51:27;5.40;99.90
15355;DHT22;7777;52.254;9.618;2023-12-14T06:53:53;5.30;99.90
15355;DHT22;7777;52.254;9.618;2023-12-14T06:56:18;5.30;99.90
15355;DHT22;7777;52.254;9.618;2023-12-14T06:58:44;5.20;99.90
15355;DHT22;7777;52.254;9.618;2023-12-14T07:01:13;5.30;99.90
15355;DHT22;7777;52.254;9.618;2023-12-14T07:03:43;5.30;99.90
15355;DHT22;7777;52.254;9.618;2023-12-14T07:06:17;5.30;99.90
15355;DHT22;7777;52.254;9.618;2023-12-14T07:08:44;5.30;99.90
15355;DHT22;7777;52.254;9.618;2023-12-14T07:11:11;5.30;99.90
15355;DHT22;7777;52.254;9.618;2023-12-14T07:13:38;5.30;99.90
15355;DHT22;7777;52.254;9.618;2023-12-14T07:16:07;5.30;99.90
15355;DHT22;7777;52.254;9.618;2023-12-14T07:18:38;5.30;99.90
15355;DHT22;7777;52.254;9.618;2023-12-14T07:21:07;5.30;99.90
15355;DHT22;7777;52.254;9.618;2023-12-14T07:23:33;5.30;99.90
15355;DHT22;7777;52.254;9.618;2023-12-14T07:25:59;5.30;99.90
15355;DHT22;7777;52.254;9.618;2023-12-14T07:28:26;5.30;99.90
15355;DHT22;7777;52.254;9.618;2023-12-14T07:30:52;5.30;99.90
15355;DHT22;7777;52.254;9.618;2023-12-14T07:33:18;5.30;99.90
15355;DHT22;7777;52.254;9.618;2023-12-14T07:35:45;5.30;99.90
15355;DHT22;7777;52.254;9.618;2023-12-14T07:38:11;5.30;99.90
15355;DHT22;7777;52.254;9.618;2023-12-14T07:40:39;5.30;99.90
15355;DHT22;7777;52.254;9.618;2023-12-14T07:43:05;5.30;99.90
15355;DHT22;7777;52.254;9.618;2023-12-14T07:45:31;5.30;99.90
15355;DHT22;7777;52.254;9.618;2023-12-14T07:47:58;5.30;99.90
15355;DHT22;7777;52.254;9.618;2023-12-14T07:50:25;5.30;99.90
15355;DHT22;7777;52.254;9.618;2023-12-14T07:52:50;5.30;99.90
15355;DHT22;7777;52.254;9.618;2023-12-14T07:55:16;5.30;99.90
15355;DHT22;7777;52.254;9.618;2023-12-14T07:57:43;5.30;99.90
15355;DHT22;7777;52.254;9.618;2023-12-14T08:00:10;5.30;99.90
15355;DHT22;7777;52.254;9.618;2023-12-14T08:02:36;5.30;99.90
15355;DHT22;7777;52.254;9.618;2023-12-14T08:05:02;5.30;99.90
15355;DHT22;7777;52.254;9.618;2023-12-14T08:07:28;5.20;99.90
15355;DHT22;7777;52.254;9.618;2023-12-14T08:09:55;5.20;99.90
15355;DHT22;7777;52.254;9.618;2023-12-14T08:12:22;5.20;99.90
15355;DHT22;7777;52.254;9.618;2023-12-14T08:14:49;5.20;99.90
15355;DHT22;7777;52.254;9.618;2023-12-14T08:17:14;5.20;99.90
15355;DHT22;7777;52.254;9.618;2023-12-14T08:19:40;5.20;99.90
15355;DHT22;7777;52.254;9.618;2023-12-14T08:22:06;5.20;99.90
15355;DHT22;7777;52.254;9.618;2023-12-14T08:24:33;5.20;99.90
15355;DHT22;7777;52.254;9.618;2023-12-14T08:26:58;5.20;99.90
15355;DHT22;7777;52.254;9.618;2023-12-14T08:29:24;5.20;99.90
15355;DHT22;7777;52.254;9.618;2023-12-14T08:31:51;5.30;99.90
15355;DHT22;7777;52.254;9.618;2023-12-14T08:34:16;5.20;99.90
15355;DHT22;7777;52.254;9.618;2023-12-14T08:36:42;5.30;99.90
15355;DHT22;7777;52.254;9.618;2023-12-14T08:39:08;5.20;99.90
15355;DHT22;7777;52.254;9.618;2023-12-14T08:41:34;5.20;99.90
15355;DHT22;7777;52.254;9.618;2023-12-14T08:44:00;5.20;99.90
15355;DHT22;7777;52.254;9.618;2023-12-14T08:46:26;5.20;99.90
15355;DHT22;7777;52.254;9.618;2023-12-14T08:48:52;5.20;99.90
15355;DHT22;7777;52.254;9.618;2023-12-14T08:51:17;5.20;99.90
15355;DHT22;7777;52.254;9.618;2023-12-14T08:53:46;5.20;99.90
15355;DHT22;7777;52.254;9.618;2023-12-14T08:56:13;5.20;99.90
15355;DHT22;7777;52.254;9.618;2023-12-14T08:58:39;5.20;99.90
15355;DHT22;7777;52.254;9.618;2023-12-14T09:01:05;5.20;99.90
15355;DHT22;7777;52.254;9.618;2023-12-14T09:03:31;5.20;99.90
15355;DHT22;7777;52.254;9.618;2023-12-14T09:05:57;5.20;99.90
15355;DHT22;7777;52.254;9.618;2023-12-14T09:08:24;5.20;99.90
15355;DHT22;7777;52.254;9.618;2023-12-14T09:10:49;5.20;99.90
15355;DHT22;7777;52.254;9.618;2023-12-14T09:13:15;5.20;99.90
15355;DHT22;7777;52.254;9.618;2023-12-14T09:15:41;5.20;99.90
15355;DHT22;7777;52.254;9.618;2023-12-14T09:18:07;5.20;99.90
15355;DHT22;7777;52.254;9.618;2023-12-14T09:20:33;5.20;99.90
15355;DHT22;7777;52.254;9.618;2023-12-14T09:23:00;5.30;99.90
15355;DHT22;7777;52.254;9.618;2023-12-14T09:25:26;5.20;99.90
15355;DHT22;7777;52.254;9.618;2023-12-14T09:27:52;5.30;99.90
15355;DHT22;7777;52.254;9.618;2023-12-14T09:30:17;5.30;99.90
15355;DHT22;7777;52.254;9.618;2023-12-14T09:32:43;5.30;99.90
15355;DHT22;7777;52.254;9.618;2023-12-14T09:35:09;5.30;99.90
15355;DHT22;7777;52.254;9.618;2023-12-14T09:37:35;5.30;99.90
15355;DHT22;7777;52.254;9.618;2023-12-14T09:40:01;5.30;99.90
15355;DHT22;7777;52.254;9.618;2023-12-14T09:42:27;5.30;99.90
15355;DHT22;7777;52.254;9.618;2023-12-14T09:44:54;5.30;99.90
15355;DHT22;7777;52.254;9.618;2023-12-14T09:47:21;5.30;99.90
15355;DHT22;7777;52.254;9.618;2023-12-14T09:49:48;5.30;99.90
15355;DHT22;7777;52.254;9.618;2023-12-14T09:52:14;5.30;99.90
15355;DHT22;7777;52.254;9.618;2023-12-14T09:54:41;5.30;99.90
15355;DHT22;7777;52.254;9.618;2023-12-14T09:57:07;5.30;99.90
15355;DHT22;7777;52.254;9.618;2023-12-14T09:59:33;5.30;99.90
15355;DHT22;7777;52.254;9.618;2023-12-14T10:02:10;5.30;99.90
15355;DHT22;7777;52.254;9.618;2023-12-14T10:04:36;5.30;99.90
15355;DHT22;7777;52.254;9.618;2023-12-14T10:07:03;5.40;99.90
15355;DHT22;7777;52.254;9.618;2023-12-14T10:09:33;5.40;99.90
15355;DHT22;7777;52.254;9.618;2023-12-14T10:12:05;5.40;99.90
15355;DHT22;7777;52.254;9.618;2023-12-14T10:14:32;5.40;99.90
15355;DHT22;7777;52.254;9.618;2023-12-14T10:16:59;5.30;99.90
15355;DHT22;7777;52.254;9.618;2023-12-14T10:19:25;5.30;99.90
15355;DHT22;7777;52.254;9.618;2023-12-14T10:21:51;5.30;99.90
15355;DHT22;7777;52.254;9.618;2023-12-14T10:24:18;5.30;99.90
15355;DHT22;7777;52.254;9.618;2023-12-14T10:26:45;5.30;99.90
15355;DHT22;7777;52.254;9.618;2023-12-14T10:29:11;5.30;99.90
15355;DHT22;7777;52.254;9.618;2023-12-14T10:31:37;5.30;99.90
15355;DHT22;7777;52.254;9.618;2023-12-14T10:34:04;5.30;99.90
15355;DHT22;7777;52.254;9.618;2023-12-14T10:36:31;5.30;99.90
15355;DHT22;7777;52.254;9.618;2023-12-14T10:38:58;5.30;99.90
15355;DHT22;7777;52.254;9.618;2023-12-14T10:41:25;5.30;99.90
15355;DHT22;7777;52.254;9.618;2023-12-14T10:43:53;5.30;99.90
15355;DHT22;7777;52.254;9.618;2023-12-14T10:46:21;5.30;99.90
15355;DHT22;7777;52.254;9.618;2023-12-14T10:48:49;5.40;99.90
15355;DHT22;7777;52.254;9.618;2023-12-14T10:51:20;5.30;99.90
15355;DHT22;7777;52.254;9.618;2023-12-14T10:53:48;5.30;99.90
15355;DHT22;7777;52.254;9.618;2023-12-14T10:56:16;5.40;99.90
15355;DHT22;7777;52.254;9.618;2023-12-14T10:58:58;5.40;99.90
15355;DHT22;7777;52.254;9.618;2023-12-14T11:01:25;5.40;99.90
15355;DHT22;7777;52.254;9.618;2023-12-14T11:03:56;5.40;99.90
15355;DHT22;7777;52.254;9.618;2023-12-14T11:06:31;5.40;99.90
15355;DHT22;7777;52.254;9.618;2023-12-14T11:09:04;5.40;99.90
15355;DHT22;7777;52.254;9.618;2023-12-14T11:14:15;5.40;99.90
15355;DHT22;7777;52.254;9.618;2023-12-14T11:16:44;5.40;99.90
15355;DHT22;7777;52.254;9.618;2023-12-14T11:19:32;5.40;99.90
15355;DHT22;7777;52.254;9.618;2023-12-14T11:22:11;5.40;99.90
15355;DHT22;7777;52.254;9.618;2023-12-14T11:24:51;5.40;99.90
15355;DHT22;7777;52.254;9.618;2023-12-14T11:27:20;5.40;99.90
15355;DHT22;7777;52.254;9.618;2023-12-14T11:29:53;5.40;99.90
15355;DHT22;7777;52.254;9.618;2023-12-14T11:32:19;5.40;99.90
15355;DHT22;7777;52.254;9.618;2023-12-14T11:34:46;5.50;99.90
15355;DHT22;7777;52.254;9.618;2023-12-14T11:37:13;5.50;99.90
15355;DHT22;7777;52.254;9.618;2023-12-14T11:39:40;5.50;99.90
15355;DHT22;7777;52.254;9.618;2023-12-14T11:42:06;5.50;99.90
15355;DHT22;7777;52.254;9.618;2023-12-14T11:44:37;5.50;99.90
15355;DHT22;7777;52.254;9.618;2023-12-14T11:47:03;5.50;99.90
15355;DHT22;7777;52.254;9.618;2023-12-14T11:49:29;5.50;99.90
15355;DHT22;7777;52.254;9.618;2023-12-14T11:51:56;5.50;99.90
15355;DHT22;7777;52.254;9.618;2023-12-14T11:54:22;5.50;99.90
15355;DHT22;7777;52.254;9.618;2023-12-14T11:56:48;5.50;99.90
15355;DHT22;7777;52.254;9.618;2023-12-14T11:59:18;5.50;99.90
15355;DHT22;7777;52.254;9.618;2023-12-14T12:01:58;5.50;99.90
15355;DHT22;7777;52.254;9.618;2023-12-14T12:04:26;5.50;99.90
15355;DHT22;7777;52.254;9.618;2023-12-14T12:07:05;5.50;99.90
15355;DHT22;7777;52.254;9.618;2023-12-14T12:09:41;5.50;99.90
15355;DHT22;7777;52.254;9.618;2023-12-14T12:12:09;5.60;99.90
15355;DHT22;7777;52.254;9.618;2023-12-14T12:14:35;5.60;99.90
15355;DHT22;7777;52.254;9.618;2023-12-14T12:17:02;5.50;99.90
15355;DHT22;7777;52.254;9.618;2023-12-14T12:19:31;5.60;99.90
15355;DHT22;7777;52.254;9.618;2023-12-14T12:22:00;5.50;99.90
15355;DHT22;7777;52.254;9.618;2023-12-14T12:24:26;5.60;99.90
15355;DHT22;7777;52.254;9.618;2023-12-14T12:26:51;5.60;99.90
15355;DHT22;7777;52.254;9.618;2023-12-14T12:29:17;5.60;99.90
15355;DHT22;7777;52.254;9.618;2023-12-14T12:31:43;5.50;99.90
15355;DHT22;7777;52.254;9.618;2023-12-14T12:34:11;5.60;99.90
15355;DHT22;7777;52.254;9.618;2023-12-14T12:36:37;5.60;99.90
15355;DHT22;7777;52.254;9.618;2023-12-14T12:39:03;5.60;99.90
15355;DHT22;7777;52.254;9.618;2023-12-14T12:41:31;5.50;99.90
15355;DHT22;7777;52.254;9.618;2023-12-14T12:43:59;5.60;99.90
15355;DHT22;7777;52.254;9.618;2023-12-14T12:46:31;5.60;99.90
15355;DHT22;7777;52.254;9.618;2023-12-14T12:48:58;5.60;99.90
15355;DHT22;7777;52.254;9.618;2023-12-14T12:51:24;5.60;99.90
15355;DHT22;7777;52.254;9.618;2023-12-14T12:53:52;5.60;99.90
15355;DHT22;7777;52.254;9.618;2023-12-14T12:56:18;5.50;99.90
15355;DHT22;7777;52.254;9.618;2023-12-14T12:58:44;5.50;99.90
15355;DHT22;7777;52.254;9.618;2023-12-14T13:01:10;5.60;99.90
15355;DHT22;7777;52.254;9.618;2023-12-14T13:03:35;5.60;99.90
15355;DHT22;7777;52.254;9.618;2023-12-14T13:06:01;5.60;99.90
15355;DHT22;7777;52.254;9.618;2023-12-14T13:08:28;5.60;99.90
15355;DHT22;7777;52.254;9.618;2023-12-14T13:10:54;5.60;99.90
15355;DHT22;7777;52.254;9.618;2023-12-14T13:13:20;5.60;99.90
15355;DHT22;7777;52.254;9.618;2023-12-14T13:15:45;5.50;99.90
15355;DHT22;7777;52.254;9.618;2023-12-14T13:18:11;5.60;99.90
15355;DHT22;7777;52.254;9.618;2023-12-14T13:20:37;5.60;99.90
15355;DHT22;7777;52.254;9.618;2023-12-14T13:23:02;5.60;99.90
15355;DHT22;7777;52.254;9.618;2023-12-14T13:25:28;5.60;99.90
15355;DHT22;7777;52.254;9.618;2023-12-14T13:27:54;5.60;99.90
15355;DHT22;7777;52.254;9.618;2023-12-14T13:30:20;5.60;99.90
15355;DHT22;7777;52.254;9.618;2023-12-14T13:32:48;5.60;99.90
15355;DHT22;7777;52.254;9.618;2023-12-14T13:35:14;5.60;99.90
15355;DHT22;7777;52.254;9.618;2023-12-14T13:37:39;5.60;99.90
15355;DHT22;7777;52.254;9.618;2023-12-14T13:40:05;5.60;99.90
15355;DHT22;7777;52.254;9.618;2023-12-14T13:42:32;5.60;99.90
15355;DHT22;7777;52.254;9.618;2023-12-14T13:44:57;5.60;99.90
15355;DHT22;7777;52.254;9.618;2023-12-14T13:47:23;5.60;99.90
15355;DHT22;7777;52.254;9.618;2023-12-14T13:49:49;5.60;99.90
15355;DHT22;7777;52.254;9.618;2023-12-14T13:52:15;5.60;99.90
15355;DHT22;7777;52.254;9.618;2023-12-14T13:54:41;5.60;99.90
15355;DHT22;7777;52.254;9.618;2023-12-14T13:57:07;5.60;99.90
15355;DHT22;7777;52.254;9.618;2023-12-14T13:59:32;5.60;99.90
15355;DHT22;7777;52.254;9.618;2023-12-14T14:01:58;5.60;99.90
15355;DHT22;7777;52.254;9.618;2023-12-14T14:04:24;5.60;99.90
15355;DHT22;7777;52.254;9.618;2023-12-14T14:06:50;5.60;99.90
15355;DHT22;7777;52.254;9.618;2023-12-14T14:09:16;5.60;99.90
15355;DHT22;7777;52.254;9.618;2023-12-14T14:11:43;5.70;99.90
15355;DHT22;7777;52.254;9.618;2023-12-14T14:14:12;5.60;99.90
15355;DHT22;7777;52.254;9.618;2023-12-14T14:16:38;5.70;99.90
15355;DHT22;7777;52.254;9.618;2023-12-14T14:19:04;5.70;99.90
15355;DHT22;7777;52.254;9.618;2023-12-14T14:21:30;5.70;99.90
15355;DHT22;7777;52.254;9.618;2023-12-14T14:23:55;5.70;99.90
15355;DHT22;7777;52.254;9.618;2023-12-14T14:26:21;5.70;99.90
15355;DHT22;7777;52.254;9.618;2023-12-14T14:28:47;5.70;99.90
15355;DHT22;7777;52.254;9.618;2023-12-14T14:31:12;5.70;99.90
15355;DHT22;7777;52.254;9.618;2023-12-14T14:33:39;5.80;99.90
15355;DHT22;7777;52.254;9.618;2023-12-14T14:36:05;5.70;99.90
15355;DHT22;7777;52.254;9.618;2023-12-14T14:38:32;5.70;99.90
15355;DHT22;7777;52.254;9.618;2023-12-14T14:40:58;5.70;99.90
15355;DHT22;7777;52.254;9.618;2023-12-14T14:43:23;5.70;99.90
15355;DHT22;7777;52.254;9.618;2023-12-14T14:45:49;5.70;99.90
15355;DHT22;7777;52.254;9.618;2023-12-14T14:48:15;5.70;99.90
15355;DHT22;7777;52.254;9.618;2023-12-14T14:50:42;5.70;99.90
15355;DHT22;7777;52.254;9.618;2023-12-14T14:53:08;5.70;99.90
15355;DHT22;7777;52.254;9.618;2023-12-14T14:55:33;5.70;99.90
15355;DHT22;7777;52.254;9.618;2023-12-14T14:58:00;5.70;99.90
15355;DHT22;7777;52.254;9.618;2023-12-14T15:00:26;5.70;99.90
15355;DHT22;7777;52.254;9.618;2023-12-14T15:02:52;5.70;99.90
15355;DHT22;7777;52.254;9.618;2023-12-14T15:05:18;5.70;99.90
15355;DHT22;7777;52.254;9.618;2023-12-14T15:07:43;5.70;99.90
15355;DHT22;7777;52.254;9.618;2023-12-14T15:10:09;5.70;99.90
15355;DHT22;7777;52.254;9.618;2023-12-14T15:12:35;5.70;99.90
15355;DHT22;7777;52.254;9.618;2023-12-14T15:15:01;5.70;99.90
15355;DHT22;7777;52.254;9.618;2023-12-14T15:17:28;5.70;99.90
15355;DHT22;7777;52.254;9.618;2023-12-14T15:19:54;5.70;99.90
15355;DHT22;7777;52.254;9.618;2023-12-14T15:22:20;5.70;99.90
15355;DHT22;7777;52.254;9.618;2023-12-14T15:24:45;5.70;99.90
15355;DHT22;7777;52.254;9.618;2023-12-14T15:27:12;5.70;99.90
15355;DHT22;7777;52.254;9.618;2023-12-14T15:29:39;5.70;99.90
15355;DHT22;7777;52.254;9.618;2023-12-14T15:32:05;5.70;99.90
15355;DHT22;7777;52.254;9.618;2023-12-14T15:34:31;5.70;99.90
15355;DHT22;7777;52.254;9.618;2023-12-14T15:36:57;5.70;99.90
15355;DHT22;7777;52.254;9.618;2023-12-14T15:39:23;5.60;99.90
15355;DHT22;7777;52.254;9.618;2023-12-14T15:41:49;5.70;99.90
15355;DHT22;7777;52.254;9.618;2023-12-14T15:44:15;5.60;99.90
15355;DHT22;7777;52.254;9.618;2023-12-14T15:46:41;5.60;99.90
15355;DHT22;7777;52.254;9.618;2023-12-14T15:49:07;5.60;99.90
15355;DHT22;7777;52.254;9.618;2023-12-14T15:51:33;5.60;99.90
15355;DHT22;7777;52.254;9.618;2023-12-14T15:53:59;5.50;99.90
15355;DHT22;7777;52.254;9.618;2023-12-14T15:56:25;5.50;99.90
15355;DHT22;7777;52.254;9.618;2023-12-14T15:58:53;5.50;99.90
15355;DHT22;7777;52.254;9.618;2023-12-14T16:01:20;5.50;99.90
15355;DHT22;7777;52.254;9.618;2023-12-14T16:03:46;5.40;99.90
15355;DHT22;7777;52.254;9.618;2023-12-14T16:06:13;5.40;99.90
15355;DHT22;7777;52.254;9.618;2023-12-14T16:08:38;5.40;99.90
15355;DHT22;7777;52.254;9.618;2023-12-14T16:11:06;5.40;99.90
15355;DHT22;7777;52.254;9.618;2023-12-14T16:13:32;5.30;99.90
15355;DHT22;7777;52.254;9.618;2023-12-14T16:15:58;5.30;99.90
15355;DHT22;7777;52.254;9.618;2023-12-14T16:18:23;5.30;99.90
15355;DHT22;7777;52.254;9.618;2023-12-14T16:20:49;5.20;99.90
15355;DHT22;7777;52.254;9.618;2023-12-14T16:23:15;5.20;99.90
15355;DHT22;7777;52.254;9.618;2023-12-14T16:25:41;5.20;99.90
15355;DHT22;7777;52.254;9.618;2023-12-14T16:28:07;5.20;99.90
15355;DHT22;7777;52.254;9.618;2023-12-14T16:30:33;5.20;99.90
15355;DHT22;7777;52.254;9.618;2023-12-14T16:32:58;5.10;99.90
15355;DHT22;7777;52.254;9.618;2023-12-14T16:35:24;5.10;99.90
15355;DHT22;7777;52.254;9.618;2023-12-14T16:37:50;5.10;99.90
15355;DHT22;7777;52.254;9.618;2023-12-14T16:40:16;5.10;99.90
15355;DHT22;7777;52.254;9.618;2023-12-14T16:42:41;5.10;99.90
15355;DHT22;7777;52.254;9.618;2023-12-14T16:45:08;5.00;99.90
15355;DHT22;7777;52.254;9.618;2023-12-14T16:47:36;5.10;99.90
15355;DHT22;7777;52.254;9.618;2023-12-14T16:50:02;5.10;99.90
15355;DHT22;7777;52.254;9.618;2023-12-14T16:52:29;5.10;99.90
15355;DHT22;7777;52.254;9.618;2023-12-14T16:54:54;5.10;99.90
15355;DHT22;7777;52.254;9.618;2023-12-14T16:57:20;5.10;99.90
15355;DHT22;7777;52.254;9.618;2023-12-14T16:59:50;5.10;99.90
15355;DHT22;7777;52.254;9.618;2023-12-14T17:02:18;5.10;99.90
15355;DHT22;7777;52.254;9.618;2023-12-14T17:04:44;5.10;99.90
15355;DHT22;7777;52.254;9.618;2023-12-14T17:07:11;5.10;99.90
15355;DHT22;7777;52.254;9.618;2023-12-14T17:09:36;5.10;99.90
15355;DHT22;7777;52.254;9.618;2023-12-14T17:12:03;5.10;99.90
15355;DHT22;7777;52.254;9.618;2023-12-14T17:14:30;5.10;99.90
15355;DHT22;7777;52.254;9.618;2023-12-14T17:16:56;5.10;99.90
15355;DHT22;7777;52.254;9.618;2023-12-14T17:19:22;5.10;99.90
15355;DHT22;7777;52.254;9.618;2023-12-14T17:21:50;5.10;99.90
15355;DHT22;7777;52.254;9.618;2023-12-14T17:24:17;5.10;99.90
15355;DHT22;7777;52.254;9.618;2023-12-14T17:26:43;5.10;99.90
15355;DHT22;7777;52.254;9.618;2023-12-14T17:29:08;5.10;99.90
15355;DHT22;7777;52.254;9.618;2023-12-14T17:31:36;5.10;99.90
15355;DHT22;7777;52.254;9.618;2023-12-14T17:34:02;5.10;99.90
15355;DHT22;7777;52.254;9.618;2023-12-14T17:36:28;5.10;99.90
15355;DHT22;7777;52.254;9.618;2023-12-14T17:38:54;5.10;99.90
15355;DHT22;7777;52.254;9.618;2023-12-14T17:41:20;5.10;99.90
15355;DHT22;7777;52.254;9.618;2023-12-14T17:43:47;5.10;99.90
15355;DHT22;7777;52.254;9.618;2023-12-14T17:46:14;5.10;99.90
15355;DHT22;7777;52.254;9.618;2023-12-14T17:48:40;5.10;99.90
15355;DHT22;7777;52.254;9.618;2023-12-14T17:51:06;5.10;99.90
15355;DHT22;7777;52.254;9.618;2023-12-14T17:53:32;5.10;99.90
15355;DHT22;7777;52.254;9.618;2023-12-14T17:56:00;5.10;99.90
15355;DHT22;7777;52.254;9.618;2023-12-14T17:58:26;5.10;99.90
15355;DHT22;7777;52.254;9.618;2023-12-14T18:00:51;5.10;99.90
15355;DHT22;7777;52.254;9.618;2023-12-14T18:03:17;5.10;99.90
15355;DHT22;7777;52.254;9.618;2023-12-14T18:05:43;5.10;99.90
15355;DHT22;7777;52.254;9.618;2023-12-14T18:08:09;5.10;99.90
15355;DHT22;7777;52.254;9.618;2023-12-14T18:10:37;5.00;99.90
15355;DHT22;7777;52.254;9.618;2023-12-14T18:13:04;5.10;99.90
15355;DHT22;7777;52.254;9.618;2023-12-14T18:15:30;5.00;99.90
15355;DHT22;7777;52.254;9.618;2023-12-14T18:17:56;5.00;99.90
15355;DHT22;7777;52.254;9.618;2023-12-14T18:20:22;5.00;99.90
15355;DHT22;7777;52.254;9.618;2023-12-14T18:22:47;5.00;99.90
15355;DHT22;7777;52.254;9.618;2023-12-14T18:25:13;5.00;99.90
15355;DHT22;7777;52.254;9.618;2023-12-14T18:27:39;5.00;99.90
15355;DHT22;7777;52.254;9.618;2023-12-14T18:30:06;5.00;99.90
15355;DHT22;7777;52.254;9.618;2023-12-14T18:32:35;5.00;99.90
15355;DHT22;7777;52.254;9.618;2023-12-14T18:35:01;4.90;99.90
15355;DHT22;7777;52.254;9.618;2023-12-14T18:37:27;4.90;99.90
15355;DHT22;7777;52.254;9.618;2023-12-14T18:39:52;4.90;99.90
15355;DHT22;7777;52.254;9.618;2023-12-14T18:42:19;4.90;99.90
15355;DHT22;7777;52.254;9.618;2023-12-14T18:44:47;4.90;99.90
15355;DHT22;7777;52.254;9.618;2023-12-14T18:47:14;4.90;99.90
15355;DHT22;7777;52.254;9.618;2023-12-14T18:49:42;4.90;99.90
15355;DHT22;7777;52.254;9.618;2023-12-14T18:52:09;5.00;99.90
15355;DHT22;7777;52.254;9.618;2023-12-14T18:54:34;5.00;99.90
15355;DHT22;7777;52.254;9.618;2023-12-14T18:57:00;5.00;99.90
15355;DHT22;7777;52.254;9.618;2023-12-14T18:59:26;5.00;99.90
15355;DHT22;7777;52.254;9.618;2023-12-14T19:01:55;5.00;99.90
15355;DHT22;7777;52.254;9.618;2023-12-14T19:04:30;5.00;99.90
15355;DHT22;7777;52.254;9.618;2023-12-14T19:06:55;5.00;99.90
15355;DHT22;7777;52.254;9.618;2023-12-14T19:09:21;5.00;99.90
15355;DHT22;7777;52.254;9.618;2023-12-14T19:11:47;5.00;99.90
15355;DHT22;7777;52.254;9.618;2023-12-14T19:14:13;5.10;99.90
15355;DHT22;7777;52.254;9.618;2023-12-14T19:16:38;5.10;99.90
15355;DHT22;7777;52.254;9.618;2023-12-14T19:19:05;5.10;99.90
15355;DHT22;7777;52.254;9.618;2023-12-14T19:21:30;5.10;99.90
15355;DHT22;7777;52.254;9.618;2023-12-14T19:23:56;5.10;99.90
15355;DHT22;7777;52.254;9.618;2023-12-14T19:26:24;5.00;99.90
15355;DHT22;7777;52.254;9.618;2023-12-14T19:28:51;5.10;99.90
15355;DHT22;7777;52.254;9.618;2023-12-14T19:31:18;5.10;99.90
15355;DHT22;7777;52.254;9.618;2023-12-14T19:33:44;5.10;99.90
15355;DHT22;7777;52.254;9.618;2023-12-14T19:36:12;5.10;99.90
15355;DHT22;7777;52.254;9.618;2023-12-14T19:38:39;5.10;99.90
15355;DHT22;7777;52.254;9.618;2023-12-14T19:41:06;5.10;99.90
15355;DHT22;7777;52.254;9.618;2023-12-14T19:43:34;5.10;99.90
15355;DHT22;7777;52.254;9.618;2023-12-14T19:46:04;5.00;99.90
15355;DHT22;7777;52.254;9.618;2023-12-14T19:48:31;5.00;99.90
15355;DHT22;7777;52.254;9.618;2023-12-14T19:50:58;5.00;99.90
15355;DHT22;7777;52.254;9.618;2023-12-14T19:53:27;5.00;99.90
15355;DHT22;7777;52.254;9.618;2023-12-14T19:55:53;5.00;99.90
15355;DHT22;7777;52.254;9.618;2023-12-14T19:58:19;5.10;99.90
15355;DHT22;7777;52.254;9.618;2023-12-14T20:00:44;5.00;99.90
15355;DHT22;7777;52.254;9.618;2023-12-14T20:03:13;5.00;99.90
15355;DHT22;7777;52.254;9.618;2023-12-14T20:05:40;4.90;99.90
15355;DHT22;7777;52.254;9.618;2023-12-14T20:08:09;4.90;99.90
15355;DHT22;7777;52.254;9.618;2023-12-14T20:10:35;4.90;99.90
15355;DHT22;7777;52.254;9.618;2023-12-14T20:13:01;4.90;99.90